Centurion, South Africa

10:01 AM SAST on August 28, 2015 (GMT +0200)
Country Lane Estate | | Change Station
CLOSE
Current Station
Personal Weather Station
Location: Pretoria, GAUTENG
Elevation: 5121 ft
Nearby Weather Stations

Elev 5121 ft 25.85 °S, 28.26 °E | Updated 8 minutes ago

Clear
Clear
68.1 °F
Feels Like 68.1 °F
N
4.0
Wind Variable Wind from WNW
Gusts 8.0 mph

Today
High -- | Low -- °F
--% Chance of Precip.
Yesterday
High -- | Low -- °F
Precip. -- in
6:24 AM 5:53 PM
Waxing Gibbous, 97% visible
Pressure 30.30 in
Visibility -9999.0 miles
Clouds
Dew Point 46 °F
Humidity 46%
Rainfall 0.00 in
Snow Depth Not available.
UV Not available.
Pollen Not available.
Air Quality Not available.
Flu Activity Not available.
SPECI FAIR 280736Z 32004KT CAVOK 22/08 Q1026
Pressure 30.30 in
Visibility -9999.0 miles
Clouds
Dew Point 46 °F
Humidity 46%
Rainfall 0.00 in
Snow Depth Not available.
UV Not available.
Pollen Not available.
Air Quality Not available.
Flu Activity Not available.
SPECI FAIR 280736Z 32004KT CAVOK 22/08 Q1026

10-Day Weather Forecast

×

Almanac

Astronomy

Aug. 28, 2015 Rise Set
Actual Time
Civil Twilight
Nautical Twilight
Astronomical Twilight
Moon
Length of Visible Light
Length of Day
Tomorrow will be .
, % of the Moon is Illuminated

Today's Extremes

Country Highs Country Lows

Community

WunderPhotos

Upload Photos

1,850,348 photos uploaded!

WunderBlogs® & News

Nearby

Air Quality

  Air Quality AQ Index Pollutant
Not available.

Snow Depth

Station Depth Elevation

Earthquake Activity

City Distance Mag. Time & Date
Minimum magnitude displayed is 2.5.

Coastal Water Temperatures

Place Temperature

Stations

Nearby Weather Stations

Station Location Temp. Windchill Dew Point Humidity Wind Precip. Elev Updated Type